sensor_id;sensor_type;location;lat;lon;timestamp;P1;durP1;ratioP1;P2;durP2;ratioP2
6809;SDS011;3443;48.812;9.112;2022-11-04T00:01:27;0.45;;;0.30;;
6809;SDS011;3443;48.812;9.112;2022-11-04T00:03:52;1.10;;;0.30;;
6809;SDS011;3443;48.812;9.112;2022-11-04T00:06:18;0.38;;;0.38;;
6809;SDS011;3443;48.812;9.112;2022-11-04T00:08:51;0.40;;;0.40;;
6809;SDS011;3443;48.812;9.112;2022-11-04T00:11:18;0.30;;;0.30;;
6809;SDS011;3443;48.812;9.112;2022-11-04T00:14:04;0.30;;;0.30;;
6809;SDS011;3443;48.812;9.112;2022-11-04T00:16:30;0.20;;;0.20;;
6809;SDS011;3443;48.812;9.112;2022-11-04T00:19:15;0.95;;;0.30;;
6809;SDS011;3443;48.812;9.112;2022-11-04T00:21:40;0.30;;;0.30;;
6809;SDS011;3443;48.812;9.112;2022-11-04T00:24:25;0.22;;;0.20;;
6809;SDS011;3443;48.812;9.112;2022-11-04T00:27:13;0.30;;;0.30;;
6809;SDS011;3443;48.812;9.112;2022-11-04T00:29:59;0.35;;;0.35;;
6809;SDS011;3443;48.812;9.112;2022-11-04T00:32:24;0.30;;;0.30;;
6809;SDS011;3443;48.812;9.112;2022-11-04T00:35:09;2.38;;;0.38;;
6809;SDS011;3443;48.812;9.112;2022-11-04T00:37:39;0.30;;;0.30;;
6809;SDS011;3443;48.812;9.112;2022-11-04T00:40:07;0.85;;;0.20;;
6809;SDS011;3443;48.812;9.112;2022-11-04T00:42:34;0.50;;;0.22;;
6809;SDS011;3443;48.812;9.112;2022-11-04T00:45:00;0.50;;;0.25;;
6809;SDS011;3443;48.812;9.112;2022-11-04T00:47:25;0.30;;;0.30;;
6809;SDS011;3443;48.812;9.112;2022-11-04T00:49:51;0.68;;;0.40;;
6809;SDS011;3443;48.812;9.112;2022-11-04T00:52:17;1.30;;;0.40;;
6809;SDS011;3443;48.812;9.112;2022-11-04T00:54:43;0.30;;;0.30;;
6809;SDS011;3443;48.812;9.112;2022-11-04T00:57:09;0.35;;;0.35;;
6809;SDS011;3443;48.812;9.112;2022-11-04T00:59:36;0.30;;;0.30;;
6809;SDS011;3443;48.812;9.112;2022-11-04T01:02:01;2.88;;;0.40;;
6809;SDS011;3443;48.812;9.112;2022-11-04T01:04:27;0.40;;;0.40;;
6809;SDS011;3443;48.812;9.112;2022-11-04T01:06:53;0.57;;;0.40;;
6809;SDS011;3443;48.812;9.112;2022-11-04T01:09:19;0.30;;;0.30;;
6809;SDS011;3443;48.812;9.112;2022-11-04T01:11:44;0.43;;;0.30;;
6809;SDS011;3443;48.812;9.112;2022-11-04T01:14:10;0.63;;;0.30;;
6809;SDS011;3443;48.812;9.112;2022-11-04T01:16:36;0.30;;;0.30;;
6809;SDS011;3443;48.812;9.112;2022-11-04T01:19:02;0.57;;;0.35;;
6809;SDS011;3443;48.812;9.112;2022-11-04T01:21:29;0.35;;;0.35;;
6809;SDS011;3443;48.812;9.112;2022-11-04T01:23:55;0.38;;;0.38;;
6809;SDS011;3443;48.812;9.112;2022-11-04T01:26:22;0.20;;;0.20;;
6809;SDS011;3443;48.812;9.112;2022-11-04T01:28:50;0.50;;;0.50;;
6809;SDS011;3443;48.812;9.112;2022-11-04T01:31:17;0.22;;;0.22;;
6809;SDS011;3443;48.812;9.112;2022-11-04T01:33:45;0.20;;;0.20;;
6809;SDS011;3443;48.812;9.112;2022-11-04T01:36:12;0.30;;;0.30;;
6809;SDS011;3443;48.812;9.112;2022-11-04T01:38:38;0.32;;;0.32;;
6809;SDS011;3443;48.812;9.112;2022-11-04T01:41:04;0.30;;;0.30;;
6809;SDS011;3443;48.812;9.112;2022-11-04T01:46:15;0.47;;;0.20;;
6809;SDS011;3443;48.812;9.112;2022-11-04T01:48:46;0.38;;;0.38;;
6809;SDS011;3443;48.812;9.112;2022-11-04T01:51:11;0.30;;;0.30;;
6809;SDS011;3443;48.812;9.112;2022-11-04T01:53:38;0.63;;;0.25;;
6809;SDS011;3443;48.812;9.112;2022-11-04T01:56:07;0.20;;;0.20;;
6809;SDS011;3443;48.812;9.112;2022-11-04T01:58:44;0.30;;;0.30;;
6809;SDS011;3443;48.812;9.112;2022-11-04T02:01:12;0.55;;;0.38;;
6809;SDS011;3443;48.812;9.112;2022-11-04T02:06:12;0.40;;;0.40;;
6809;SDS011;3443;48.812;9.112;2022-11-04T02:08:38;0.22;;;0.22;;
6809;SDS011;3443;48.812;9.112;2022-11-04T02:11:05;0.30;;;0.30;;
6809;SDS011;3443;48.812;9.112;2022-11-04T02:13:32;0.28;;;0.28;;
6809;SDS011;3443;48.812;9.112;2022-11-04T02:16:07;0.20;;;0.20;;
6809;SDS011;3443;48.812;9.112;2022-11-04T02:21:24;1.55;;;0.28;;
6809;SDS011;3443;48.812;9.112;2022-11-04T02:30:19;0.60;;;0.20;;
6809;SDS011;3443;48.812;9.112;2022-11-04T02:38:31;0.93;;;0.20;;
6809;SDS011;3443;48.812;9.112;2022-11-04T02:48:57;0.40;;;0.30;;
6809;SDS011;3443;48.812;9.112;2022-11-04T02:51:28;0.20;;;0.20;;
6809;SDS011;3443;48.812;9.112;2022-11-04T02:54:13;0.32;;;0.20;;
6809;SDS011;3443;48.812;9.112;2022-11-04T02:56:47;0.20;;;0.20;;
6809;SDS011;3443;48.812;9.112;2022-11-04T02:59:30;0.20;;;0.20;;
6809;SDS011;3443;48.812;9.112;2022-11-04T03:02:02;0.38;;;0.38;;
6809;SDS011;3443;48.812;9.112;2022-11-04T03:04:32;1.10;;;0.20;;
6809;SDS011;3443;48.812;9.112;2022-11-04T03:07:01;0.20;;;0.20;;
6809;SDS011;3443;48.812;9.112;2022-11-04T03:09:30;0.30;;;0.30;;
6809;SDS011;3443;48.812;9.112;2022-11-04T03:12:01;0.75;;;0.32;;
6809;SDS011;3443;48.812;9.112;2022-11-04T03:14:35;0.20;;;0.20;;
6809;SDS011;3443;48.812;9.112;2022-11-04T03:17:09;0.32;;;0.30;;
6809;SDS011;3443;48.812;9.112;2022-11-04T03:19:55;1.23;;;0.30;;
6809;SDS011;3443;48.812;9.112;2022-11-04T03:22:24;0.80;;;0.30;;
6809;SDS011;3443;48.812;9.112;2022-11-04T03:24:54;1.85;;;0.40;;
6809;SDS011;3443;48.812;9.112;2022-11-04T03:30:00;2.30;;;0.30;;
6809;SDS011;3443;48.812;9.112;2022-11-04T03:35:11;0.15;;;0.15;;
6809;SDS011;3443;48.812;9.112;2022-11-04T03:37:40;0.93;;;0.25;;
6809;SDS011;3443;48.812;9.112;2022-11-04T03:40:06;0.30;;;0.30;;
6809;SDS011;3443;48.812;9.112;2022-11-04T03:42:34;0.20;;;0.20;;
6809;SDS011;3443;48.812;9.112;2022-11-04T03:45:04;1.80;;;0.22;;
6809;SDS011;3443;48.812;9.112;2022-11-04T03:47:30;1.95;;;0.55;;
6809;SDS011;3443;48.812;9.112;2022-11-04T03:49:58;0.20;;;0.20;;
6809;SDS011;3443;48.812;9.112;2022-11-04T03:52:44;0.52;;;0.20;;
6809;SDS011;3443;48.812;9.112;2022-11-04T03:55:10;0.30;;;0.30;;
6809;SDS011;3443;48.812;9.112;2022-11-04T04:00:15;0.20;;;0.10;;
6809;SDS011;3443;48.812;9.112;2022-11-04T04:02:47;0.63;;;0.20;;
6809;SDS011;3443;48.812;9.112;2022-11-04T04:05:27;0.63;;;0.20;;
6809;SDS011;3443;48.812;9.112;2022-11-04T04:10:25;0.93;;;0.20;;
6809;SDS011;3443;48.812;9.112;2022-11-04T04:15:48;0.20;;;0.15;;
6809;SDS011;3443;48.812;9.112;2022-11-04T04:18:40;1.05;;;0.25;;
6809;SDS011;3443;48.812;9.112;2022-11-04T04:21:14;0.28;;;0.28;;
6809;SDS011;3443;48.812;9.112;2022-11-04T04:23:48;0.30;;;0.30;;
6809;SDS011;3443;48.812;9.112;2022-11-04T04:26:36;0.70;;;0.30;;
6809;SDS011;3443;48.812;9.112;2022-11-04T04:29:22;0.45;;;0.10;;
6809;SDS011;3443;48.812;9.112;2022-11-04T04:31:49;0.45;;;0.40;;
6809;SDS011;3443;48.812;9.112;2022-11-04T04:34:22;1.30;;;0.30;;
6809;SDS011;3443;48.812;9.112;2022-11-04T04:37:04;0.20;;;0.20;;
6809;SDS011;3443;48.812;9.112;2022-11-04T04:39:38;0.77;;;0.28;;
6809;SDS011;3443;48.812;9.112;2022-11-04T04:42:29;1.33;;;0.20;;
6809;SDS011;3443;48.812;9.112;2022-11-04T04:45:18;1.60;;;0.30;;
6809;SDS011;3443;48.812;9.112;2022-11-04T04:48:05;0.47;;;0.30;;
6809;SDS011;3443;48.812;9.112;2022-11-04T04:50:38;0.20;;;0.20;;
6809;SDS011;3443;48.812;9.112;2022-11-04T04:53:06;0.22;;;0.20;;
6809;SDS011;3443;48.812;9.112;2022-11-04T04:55:32;0.88;;;0.30;;
6809;SDS011;3443;48.812;9.112;2022-11-04T04:57:57;1.30;;;0.20;;
6809;SDS011;3443;48.812;9.112;2022-11-04T05:00:23;0.22;;;0.22;;
6809;SDS011;3443;48.812;9.112;2022-11-04T05:02:49;0.32;;;0.30;;
6809;SDS011;3443;48.812;9.112;2022-11-04T05:05:15;0.20;;;0.20;;
6809;SDS011;3443;48.812;9.112;2022-11-04T05:07:41;1.02;;;0.20;;
6809;SDS011;3443;48.812;9.112;2022-11-04T05:10:08;1.67;;;0.20;;
6809;SDS011;3443;48.812;9.112;2022-11-04T05:12:35;0.75;;;0.20;;
6809;SDS011;3443;48.812;9.112;2022-11-04T05:15:20;0.25;;;0.25;;
6809;SDS011;3443;48.812;9.112;2022-11-04T05:17:46;0.85;;;0.30;;
6809;SDS011;3443;48.812;9.112;2022-11-04T05:20:11;2.67;;;0.20;;
6809;SDS011;3443;48.812;9.112;2022-11-04T05:22:37;1.23;;;0.30;;
6809;SDS011;3443;48.812;9.112;2022-11-04T05:25:03;0.30;;;0.30;;
6809;SDS011;3443;48.812;9.112;2022-11-04T05:27:29;2.25;;;0.30;;
6809;SDS011;3443;48.812;9.112;2022-11-04T05:29:55;0.88;;;0.40;;
6809;SDS011;3443;48.812;9.112;2022-11-04T05:32:20;3.60;;;0.30;;
6809;SDS011;3443;48.812;9.112;2022-11-04T05:34:46;0.60;;;0.40;;
6809;SDS011;3443;48.812;9.112;2022-11-04T05:37:12;0.40;;;0.40;;
6809;SDS011;3443;48.812;9.112;2022-11-04T05:39:37;1.23;;;0.35;;
6809;SDS011;3443;48.812;9.112;2022-11-04T05:42:03;0.57;;;0.20;;
6809;SDS011;3443;48.812;9.112;2022-11-04T05:44:28;0.82;;;0.43;;
6809;SDS011;3443;48.812;9.112;2022-11-04T05:46:54;0.88;;;0.50;;
6809;SDS011;3443;48.812;9.112;2022-11-04T05:49:19;0.40;;;0.40;;
6809;SDS011;3443;48.812;9.112;2022-11-04T05:51:45;1.30;;;0.30;;
6809;SDS011;3443;48.812;9.112;2022-11-04T05:54:10;2.83;;;0.40;;
6809;SDS011;3443;48.812;9.112;2022-11-04T05:56:36;0.82;;;0.32;;
6809;SDS011;3443;48.812;9.112;2022-11-04T05:59:02;0.45;;;0.38;;
6809;SDS011;3443;48.812;9.112;2022-11-04T06:03:57;0.28;;;0.22;;
6809;SDS011;3443;48.812;9.112;2022-11-04T06:06:25;0.50;;;0.30;;
6809;SDS011;3443;48.812;9.112;2022-11-04T06:08:53;0.57;;;0.20;;
6809;SDS011;3443;48.812;9.112;2022-11-04T06:11:19;0.43;;;0.30;;
6809;SDS011;3443;48.812;9.112;2022-11-04T06:13:46;1.70;;;0.25;;
6809;SDS011;3443;48.812;9.112;2022-11-04T06:16:11;1.73;;;0.30;;
6809;SDS011;3443;48.812;9.112;2022-11-04T06:18:37;0.40;;;0.32;;
6809;SDS011;3443;48.812;9.112;2022-11-04T06:23:45;0.70;;;0.30;;
6809;SDS011;3443;48.812;9.112;2022-11-04T06:26:11;0.63;;;0.40;;
6809;SDS011;3443;48.812;9.112;2022-11-04T06:28:37;0.30;;;0.30;;
6809;SDS011;3443;48.812;9.112;2022-11-04T06:31:04;1.73;;;0.22;;
6809;SDS011;3443;48.812;9.112;2022-11-04T06:33:31;0.88;;;0.50;;
6809;SDS011;3443;48.812;9.112;2022-11-04T06:36:00;0.40;;;0.20;;
6809;SDS011;3443;48.812;9.112;2022-11-04T06:38:30;5.32;;;0.40;;
6809;SDS011;3443;48.812;9.112;2022-11-04T06:40:57;1.15;;;0.35;;
6809;SDS011;3443;48.812;9.112;2022-11-04T06:43:23;1.23;;;0.40;;
6809;SDS011;3443;48.812;9.112;2022-11-04T06:45:56;0.93;;;0.32;;
6809;SDS011;3443;48.812;9.112;2022-11-04T06:48:22;0.50;;;0.30;;
6809;SDS011;3443;48.812;9.112;2022-11-04T06:50:48;0.52;;;0.20;;
6809;SDS011;3443;48.812;9.112;2022-11-04T06:53:14;1.00;;;0.20;;
6809;SDS011;3443;48.812;9.112;2022-11-04T06:55:39;0.50;;;0.40;;
6809;SDS011;3443;48.812;9.112;2022-11-04T06:58:05;0.75;;;0.43;;
6809;SDS011;3443;48.812;9.112;2022-11-04T07:00:30;1.30;;;0.52;;
6809;SDS011;3443;48.812;9.112;2022-11-04T07:02:56;2.40;;;0.40;;
6809;SDS011;3443;48.812;9.112;2022-11-04T07:05:22;0.30;;;0.30;;
6809;SDS011;3443;48.812;9.112;2022-11-04T07:07:47;0.40;;;0.40;;
6809;SDS011;3443;48.812;9.112;2022-11-04T07:10:13;1.83;;;0.30;;
6809;SDS011;3443;48.812;9.112;2022-11-04T07:12:39;2.05;;;0.55;;
6809;SDS011;3443;48.812;9.112;2022-11-04T07:15:05;0.40;;;0.30;;
6809;SDS011;3443;48.812;9.112;2022-11-04T07:17:31;0.80;;;0.40;;
6809;SDS011;3443;48.812;9.112;2022-11-04T07:19:56;0.85;;;0.30;;
6809;SDS011;3443;48.812;9.112;2022-11-04T07:22:22;1.20;;;0.40;;
6809;SDS011;3443;48.812;9.112;2022-11-04T07:24:48;1.00;;;0.40;;
6809;SDS011;3443;48.812;9.112;2022-11-04T07:27:13;1.95;;;0.40;;
6809;SDS011;3443;48.812;9.112;2022-11-04T07:29:39;0.60;;;0.47;;
6809;SDS011;3443;48.812;9.112;2022-11-04T07:32:05;0.82;;;0.38;;
6809;SDS011;3443;48.812;9.112;2022-11-04T07:34:30;0.98;;;0.40;;
6809;SDS011;3443;48.812;9.112;2022-11-04T07:36:56;1.20;;;0.40;;
6809;SDS011;3443;48.812;9.112;2022-11-04T07:39:22;1.42;;;0.40;;
6809;SDS011;3443;48.812;9.112;2022-11-04T07:41:47;0.50;;;0.40;;
6809;SDS011;3443;48.812;9.112;2022-11-04T07:44:13;0.45;;;0.45;;
6809;SDS011;3443;48.812;9.112;2022-11-04T07:46:38;1.50;;;0.43;;
6809;SDS011;3443;48.812;9.112;2022-11-04T07:49:05;0.95;;;0.30;;
6809;SDS011;3443;48.812;9.112;2022-11-04T07:51:32;1.48;;;0.40;;
6809;SDS011;3443;48.812;9.112;2022-11-04T07:53:58;1.42;;;0.40;;
6809;SDS011;3443;48.812;9.112;2022-11-04T07:56:24;0.22;;;0.22;;
6809;SDS011;3443;48.812;9.112;2022-11-04T07:58:51;0.30;;;0.30;;
6809;SDS011;3443;48.812;9.112;2022-11-04T08:01:18;0.85;;;0.40;;
6809;SDS011;3443;48.812;9.112;2022-11-04T08:03:47;1.45;;;0.55;;
6809;SDS011;3443;48.812;9.112;2022-11-04T08:06:14;1.70;;;0.40;;
6809;SDS011;3443;48.812;9.112;2022-11-04T08:08:40;0.47;;;0.30;;
6809;SDS011;3443;48.812;9.112;2022-11-04T08:11:12;0.50;;;0.35;;
6809;SDS011;3443;48.812;9.112;2022-11-04T08:13:39;2.00;;;0.40;;
6809;SDS011;3443;48.812;9.112;2022-11-04T08:16:06;1.33;;;0.30;;
6809;SDS011;3443;48.812;9.112;2022-11-04T08:18:36;0.43;;;0.32;;
6809;SDS011;3443;48.812;9.112;2022-11-04T08:21:02;0.30;;;0.30;;
6809;SDS011;3443;48.812;9.112;2022-11-04T08:23:28;2.15;;;0.30;;
6809;SDS011;3443;48.812;9.112;2022-11-04T08:25:54;1.40;;;0.40;;
6809;SDS011;3443;48.812;9.112;2022-11-04T08:28:20;0.38;;;0.38;;
6809;SDS011;3443;48.812;9.112;2022-11-04T08:30:58;0.40;;;0.20;;
6809;SDS011;3443;48.812;9.112;2022-11-04T08:33:35;1.00;;;0.30;;
6809;SDS011;3443;48.812;9.112;2022-11-04T08:36:05;0.40;;;0.40;;
6809;SDS011;3443;48.812;9.112;2022-11-04T08:38:37;1.65;;;0.40;;
6809;SDS011;3443;48.812;9.112;2022-11-04T08:41:03;0.75;;;0.43;;
6809;SDS011;3443;48.812;9.112;2022-11-04T08:43:31;2.78;;;0.50;;
6809;SDS011;3443;48.812;9.112;2022-11-04T08:45:58;0.55;;;0.40;;
6809;SDS011;3443;48.812;9.112;2022-11-04T08:48:24;0.70;;;0.43;;
6809;SDS011;3443;48.812;9.112;2022-11-04T08:50:51;0.70;;;0.40;;
6809;SDS011;3443;48.812;9.112;2022-11-04T08:53:19;3.50;;;0.63;;
6809;SDS011;3443;48.812;9.112;2022-11-04T08:55:45;0.77;;;0.35;;
6809;SDS011;3443;48.812;9.112;2022-11-04T08:58:12;0.70;;;0.20;;
6809;SDS011;3443;48.812;9.112;2022-11-04T09:00:37;0.50;;;0.40;;
6809;SDS011;3443;48.812;9.112;2022-11-04T09:03:03;0.90;;;0.50;;
6809;SDS011;3443;48.812;9.112;2022-11-04T09:05:29;2.83;;;0.57;;
6809;SDS011;3443;48.812;9.112;2022-11-04T09:07:55;0.73;;;0.50;;
6809;SDS011;3443;48.812;9.112;2022-11-04T09:10:21;0.50;;;0.40;;
6809;SDS011;3443;48.812;9.112;2022-11-04T09:12:46;1.85;;;0.40;;
6809;SDS011;3443;48.812;9.112;2022-11-04T09:15:12;2.55;;;0.30;;
6809;SDS011;3443;48.812;9.112;2022-11-04T09:17:38;1.65;;;0.20;;
6809;SDS011;3443;48.812;9.112;2022-11-04T09:20:04;0.75;;;0.30;;
6809;SDS011;3443;48.812;9.112;2022-11-04T09:22:31;1.20;;;0.30;;
6809;SDS011;3443;48.812;9.112;2022-11-04T09:24:56;5.60;;;0.47;;
6809;SDS011;3443;48.812;9.112;2022-11-04T09:27:22;1.60;;;0.20;;
6809;SDS011;3443;48.812;9.112;2022-11-04T09:29:48;2.63;;;0.40;;
6809;SDS011;3443;48.812;9.112;2022-11-04T09:32:13;2.13;;;0.38;;
6809;SDS011;3443;48.812;9.112;2022-11-04T09:34:39;0.38;;;0.20;;
6809;SDS011;3443;48.812;9.112;2022-11-04T09:37:05;1.75;;;0.40;;
6809;SDS011;3443;48.812;9.112;2022-11-04T09:39:30;0.30;;;0.30;;
6809;SDS011;3443;48.812;9.112;2022-11-04T09:42:01;4.10;;;0.45;;
6809;SDS011;3443;48.812;9.112;2022-11-04T09:44:52;1.38;;;0.40;;
6809;SDS011;3443;48.812;9.112;2022-11-04T09:47:20;1.70;;;0.28;;
6809;SDS011;3443;48.812;9.112;2022-11-04T09:49:47;1.45;;;0.30;;
6809;SDS011;3443;48.812;9.112;2022-11-04T09:52:25;2.13;;;0.70;;
6809;SDS011;3443;48.812;9.112;2022-11-04T09:57:38;0.95;;;0.55;;
6809;SDS011;3443;48.812;9.112;2022-11-04T10:00:04;1.85;;;0.50;;
6809;SDS011;3443;48.812;9.112;2022-11-04T10:07:53;1.40;;;0.30;;
6809;SDS011;3443;48.812;9.112;2022-11-04T10:13:16;0.45;;;0.30;;
6809;SDS011;3443;48.812;9.112;2022-11-04T10:15:54;2.28;;;0.20;;
6809;SDS011;3443;48.812;9.112;2022-11-04T10:27:12;2.78;;;0.30;;
6809;SDS011;3443;48.812;9.112;2022-11-04T10:29:44;1.60;;;0.30;;
6809;SDS011;3443;48.812;9.112;2022-11-04T10:32:16;1.45;;;0.30;;
6809;SDS011;3443;48.812;9.112;2022-11-04T10:34:53;2.30;;;0.25;;
6809;SDS011;3443;48.812;9.112;2022-11-04T10:37:30;0.73;;;0.35;;
6809;SDS011;3443;48.812;9.112;2022-11-04T10:40:11;0.70;;;0.40;;
6809;SDS011;3443;48.812;9.112;2022-11-04T10:42:49;0.90;;;0.35;;
6809;SDS011;3443;48.812;9.112;2022-11-04T10:45:15;2.78;;;0.40;;
6809;SDS011;3443;48.812;9.112;2022-11-04T10:50:25;2.10;;;0.35;;
6809;SDS011;3443;48.812;9.112;2022-11-04T10:53:01;0.57;;;0.30;;
6809;SDS011;3443;48.812;9.112;2022-11-04T10:55:42;2.28;;;0.30;;
6809;SDS011;3443;48.812;9.112;2022-11-04T10:58:17;0.80;;;0.30;;
6809;SDS011;3443;48.812;9.112;2022-11-04T11:00:52;1.80;;;0.20;;
6809;SDS011;3443;48.812;9.112;2022-11-04T11:03:22;5.45;;;0.40;;
6809;SDS011;3443;48.812;9.112;2022-11-04T11:08:34;1.25;;;0.43;;
6809;SDS011;3443;48.812;9.112;2022-11-04T11:11:04;2.60;;;0.20;;
6809;SDS011;3443;48.812;9.112;2022-11-04T11:13:35;2.47;;;0.40;;
6809;SDS011;3443;48.812;9.112;2022-11-04T11:16:04;2.53;;;0.40;;
6809;SDS011;3443;48.812;9.112;2022-11-04T11:18:31;3.05;;;0.50;;
6809;SDS011;3443;48.812;9.112;2022-11-04T11:21:10;1.27;;;0.22;;
6809;SDS011;3443;48.812;9.112;2022-11-04T11:23:45;1.80;;;0.40;;
6809;SDS011;3443;48.812;9.112;2022-11-04T11:28:50;1.30;;;0.30;;
6809;SDS011;3443;48.812;9.112;2022-11-04T11:31:20;0.80;;;0.45;;
6809;SDS011;3443;48.812;9.112;2022-11-04T11:33:51;2.42;;;0.50;;
6809;SDS011;3443;48.812;9.112;2022-11-04T11:36:43;0.93;;;0.40;;
6809;SDS011;3443;48.812;9.112;2022-11-04T11:44:47;1.27;;;0.35;;
6809;SDS011;3443;48.812;9.112;2022-11-04T11:47:34;1.67;;;0.50;;
6809;SDS011;3443;48.812;9.112;2022-11-04T11:50:48;0.65;;;0.38;;
6809;SDS011;3443;48.812;9.112;2022-11-04T11:53:10;1.77;;;0.30;;
6809;SDS011;3443;48.812;9.112;2022-11-04T11:55:42;1.35;;;0.30;;
6809;SDS011;3443;48.812;9.112;2022-11-04T11:58:43;2.75;;;0.30;;
6809;SDS011;3443;48.812;9.112;2022-11-04T12:04:01;4.57;;;0.55;;
6809;SDS011;3443;48.812;9.112;2022-11-04T12:09:18;2.03;;;0.50;;
6809;SDS011;3443;48.812;9.112;2022-11-04T12:25:38;2.53;;;0.70;;
6809;SDS011;3443;48.812;9.112;2022-11-04T12:29:27;1.73;;;0.40;;
6809;SDS011;3443;48.812;9.112;2022-11-04T12:31:42;0.55;;;0.30;;
6809;SDS011;3443;48.812;9.112;2022-11-04T12:47:43;1.95;;;0.52;;
6809;SDS011;3443;48.812;9.112;2022-11-04T12:55:25;2.67;;;0.63;;
6809;SDS011;3443;48.812;9.112;2022-11-04T12:58:23;1.38;;;0.50;;
6809;SDS011;3443;48.812;9.112;2022-11-04T13:01:04;3.80;;;0.70;;
6809;SDS011;3443;48.812;9.112;2022-11-04T13:06:25;2.35;;;0.50;;
6809;SDS011;3443;48.812;9.112;2022-11-04T13:09:02;1.70;;;0.70;;
6809;SDS011;3443;48.812;9.112;2022-11-04T13:11:39;1.65;;;0.52;;
6809;SDS011;3443;48.812;9.112;2022-11-04T13:14:25;2.20;;;0.40;;
6809;SDS011;3443;48.812;9.112;2022-11-04T13:16:55;2.13;;;0.45;;
6809;SDS011;3443;48.812;9.112;2022-11-04T13:19:34;3.97;;;0.55;;
6809;SDS011;3443;48.812;9.112;2022-11-04T13:22:08;2.45;;;2.00;;
6809;SDS011;3443;48.812;9.112;2022-11-04T13:24:39;2.13;;;0.80;;
6809;SDS011;3443;48.812;9.112;2022-11-04T13:27:46;0.93;;;0.70;;
6809;SDS011;3443;48.812;9.112;2022-11-04T13:35:50;2.38;;;0.70;;
6809;SDS011;3443;48.812;9.112;2022-11-04T13:38:38;2.03;;;0.88;;
6809;SDS011;3443;48.812;9.112;2022-11-04T13:41:15;1.63;;;0.68;;
6809;SDS011;3443;48.812;9.112;2022-11-04T13:43:52;1.58;;;0.47;;
6809;SDS011;3443;48.812;9.112;2022-11-04T13:46:24;1.33;;;0.38;;
6809;SDS011;3443;48.812;9.112;2022-11-04T13:48:58;1.98;;;0.40;;
6809;SDS011;3443;48.812;9.112;2022-11-04T13:54:24;1.58;;;0.20;;
6809;SDS011;3443;48.812;9.112;2022-11-04T13:58:00;0.63;;;0.10;;
6809;SDS011;3443;48.812;9.112;2022-11-04T14:00:20;0.20;;;0.20;;
6809;SDS011;3443;48.812;9.112;2022-11-04T14:08:13;0.80;;;0.10;;
6809;SDS011;3443;48.812;9.112;2022-11-04T14:16:04;0.15;;;0.10;;
6809;SDS011;3443;48.812;9.112;2022-11-04T14:18:31;0.20;;;0.10;;
6809;SDS011;3443;48.812;9.112;2022-11-04T14:21:05;0.13;;;0.10;;
6809;SDS011;3443;48.812;9.112;2022-11-04T14:23:33;0.20;;;0.20;;
6809;SDS011;3443;48.812;9.112;2022-11-04T14:26:01;0.40;;;0.20;;
6809;SDS011;3443;48.812;9.112;2022-11-04T14:28:32;0.20;;;0.20;;
6809;SDS011;3443;48.812;9.112;2022-11-04T14:31:03;0.20;;;0.20;;
6809;SDS011;3443;48.812;9.112;2022-11-04T14:36:23;0.40;;;0.20;;
6809;SDS011;3443;48.812;9.112;2022-11-04T14:38:56;0.30;;;0.30;;
6809;SDS011;3443;48.812;9.112;2022-11-04T14:41:30;0.60;;;0.10;;
6809;SDS011;3443;48.812;9.112;2022-11-04T14:43:57;0.17;;;0.17;;
6809;SDS011;3443;48.812;9.112;2022-11-04T14:46:26;0.35;;;0.20;;
6809;SDS011;3443;48.812;9.112;2022-11-04T14:48:56;0.30;;;0.15;;
6809;SDS011;3443;48.812;9.112;2022-11-04T14:51:28;0.25;;;0.10;;
6809;SDS011;3443;48.812;9.112;2022-11-04T14:54:02;1.40;;;0.20;;
6809;SDS011;3443;48.812;9.112;2022-11-04T14:56:30;1.13;;;0.10;;
6809;SDS011;3443;48.812;9.112;2022-11-04T15:01:28;0.57;;;0.20;;
6809;SDS011;3443;48.812;9.112;2022-11-04T15:03:58;2.05;;;0.30;;
6809;SDS011;3443;48.812;9.112;2022-11-04T15:06:30;0.47;;;0.10;;
6809;SDS011;3443;48.812;9.112;2022-11-04T15:08:55;0.73;;;0.30;;
6809;SDS011;3443;48.812;9.112;2022-11-04T15:11:23;0.20;;;0.20;;
6809;SDS011;3443;48.812;9.112;2022-11-04T15:14:20;1.38;;;0.20;;
6809;SDS011;3443;48.812;9.112;2022-11-04T15:16:48;0.43;;;0.20;;
6809;SDS011;3443;48.812;9.112;2022-11-04T15:19:18;2.83;;;0.30;;
6809;SDS011;3443;48.812;9.112;2022-11-04T15:21:53;1.15;;;0.30;;
6809;SDS011;3443;48.812;9.112;2022-11-04T15:24:19;1.23;;;0.25;;
6809;SDS011;3443;48.812;9.112;2022-11-04T15:26:49;0.80;;;0.22;;
6809;SDS011;3443;48.812;9.112;2022-11-04T15:29:16;1.10;;;0.20;;
6809;SDS011;3443;48.812;9.112;2022-11-04T15:31:54;0.30;;;0.30;;
6809;SDS011;3443;48.812;9.112;2022-11-04T15:34:22;1.20;;;0.40;;
6809;SDS011;3443;48.812;9.112;2022-11-04T15:36:50;0.90;;;0.40;;
6809;SDS011;3443;48.812;9.112;2022-11-04T15:39:19;0.73;;;0.60;;
6809;SDS011;3443;48.812;9.112;2022-11-04T15:41:46;0.60;;;0.60;;
6809;SDS011;3443;48.812;9.112;2022-11-04T15:44:34;1.30;;;0.95;;
6809;SDS011;3443;48.812;9.112;2022-11-04T15:49:42;2.13;;;0.75;;
6809;SDS011;3443;48.812;9.112;2022-11-04T15:52:13;0.60;;;0.60;;
6809;SDS011;3443;48.812;9.112;2022-11-04T15:54:48;0.50;;;0.50;;
6809;SDS011;3443;48.812;9.112;2022-11-04T15:57:17;0.77;;;0.50;;
6809;SDS011;3443;48.812;9.112;2022-11-04T15:59:49;2.05;;;0.50;;
6809;SDS011;3443;48.812;9.112;2022-11-04T16:02:22;0.50;;;0.40;;
6809;SDS011;3443;48.812;9.112;2022-11-04T16:05:00;0.93;;;0.40;;
6809;SDS011;3443;48.812;9.112;2022-11-04T16:07:38;0.75;;;0.40;;
6809;SDS011;3443;48.812;9.112;2022-11-04T16:13:01;1.00;;;0.60;;
6809;SDS011;3443;48.812;9.112;2022-11-04T16:21:20;3.22;;;0.80;;
6809;SDS011;3443;48.812;9.112;2022-11-04T16:23:51;0.90;;;0.60;;
6809;SDS011;3443;48.812;9.112;2022-11-04T16:26:30;1.50;;;0.75;;
6809;SDS011;3443;48.812;9.112;2022-11-04T16:29:05;2.72;;;1.58;;
6809;SDS011;3443;48.812;9.112;2022-11-04T16:31:33;3.28;;;1.70;;
6809;SDS011;3443;48.812;9.112;2022-11-04T16:34:00;1.60;;;1.50;;
6809;SDS011;3443;48.812;9.112;2022-11-04T16:36:26;1.77;;;1.42;;
6809;SDS011;3443;48.812;9.112;2022-11-04T16:38:55;1.58;;;1.20;;
6809;SDS011;3443;48.812;9.112;2022-11-04T16:41:28;1.35;;;0.90;;
6809;SDS011;3443;48.812;9.112;2022-11-04T16:43:56;1.00;;;1.00;;
6809;SDS011;3443;48.812;9.112;2022-11-04T16:46:23;2.85;;;1.00;;
6809;SDS011;3443;48.812;9.112;2022-11-04T16:48:48;7.28;;;1.13;;
6809;SDS011;3443;48.812;9.112;2022-11-04T16:51:15;1.00;;;1.00;;
6809;SDS011;3443;48.812;9.112;2022-11-04T16:53:42;0.85;;;0.80;;
6809;SDS011;3443;48.812;9.112;2022-11-04T16:56:08;1.35;;;0.90;;
6809;SDS011;3443;48.812;9.112;2022-11-04T16:58:34;1.33;;;0.90;;
6809;SDS011;3443;48.812;9.112;2022-11-04T17:01:00;1.63;;;1.48;;
6809;SDS011;3443;48.812;9.112;2022-11-04T17:03:25;1.58;;;1.20;;
6809;SDS011;3443;48.812;9.112;2022-11-04T17:05:52;2.58;;;1.30;;
6809;SDS011;3443;48.812;9.112;2022-11-04T17:08:23;2.40;;;2.20;;
6809;SDS011;3443;48.812;9.112;2022-11-04T17:10:50;1.60;;;1.50;;
6809;SDS011;3443;48.812;9.112;2022-11-04T17:13:16;1.60;;;1.23;;
6809;SDS011;3443;48.812;9.112;2022-11-04T17:15:42;1.20;;;1.10;;
6809;SDS011;3443;48.812;9.112;2022-11-04T17:18:08;1.85;;;1.30;;
6809;SDS011;3443;48.812;9.112;2022-11-04T17:20:38;2.28;;;1.65;;
6809;SDS011;3443;48.812;9.112;2022-11-04T17:23:05;2.42;;;1.02;;
6809;SDS011;3443;48.812;9.112;2022-11-04T17:25:31;1.00;;;1.00;;
6809;SDS011;3443;48.812;9.112;2022-11-04T17:27:56;1.17;;;0.80;;
6809;SDS011;3443;48.812;9.112;2022-11-04T17:30:22;0.98;;;0.90;;
6809;SDS011;3443;48.812;9.112;2022-11-04T17:32:48;1.30;;;0.80;;
6809;SDS011;3443;48.812;9.112;2022-11-04T17:35:14;3.50;;;0.70;;
6809;SDS011;3443;48.812;9.112;2022-11-04T17:37:41;0.77;;;0.60;;
6809;SDS011;3443;48.812;9.112;2022-11-04T17:40:07;1.33;;;0.77;;
6809;SDS011;3443;48.812;9.112;2022-11-04T17:42:36;0.75;;;0.75;;
6809;SDS011;3443;48.812;9.112;2022-11-04T17:45:20;0.80;;;0.80;;
6809;SDS011;3443;48.812;9.112;2022-11-04T17:47:46;0.70;;;0.70;;
6809;SDS011;3443;48.812;9.112;2022-11-04T17:50:11;0.80;;;0.80;;
6809;SDS011;3443;48.812;9.112;2022-11-04T17:52:37;1.20;;;0.93;;
6809;SDS011;3443;48.812;9.112;2022-11-04T17:55:06;1.13;;;0.85;;
6809;SDS011;3443;48.812;9.112;2022-11-04T17:57:32;2.00;;;1.48;;
6809;SDS011;3443;48.812;9.112;2022-11-04T17:59:59;1.88;;;1.58;;
6809;SDS011;3443;48.812;9.112;2022-11-04T18:02:25;1.70;;;1.60;;
6809;SDS011;3443;48.812;9.112;2022-11-04T18:04:50;2.17;;;1.45;;
6809;SDS011;3443;48.812;9.112;2022-11-04T18:07:16;3.55;;;3.17;;
6809;SDS011;3443;48.812;9.112;2022-11-04T18:09:43;3.90;;;2.80;;
6809;SDS011;3443;48.812;9.112;2022-11-04T18:12:08;4.25;;;2.40;;